Kezdőlap
METAR-TAF:

METAR-TAF

Repülőterek :

Narathiwat, Thaiföld

földrajzi szélesség: 6-31-12N, földrajzi hosszúság: 101-44-36E, magasság: 5 m

Jelenlegi meteorológiai megfigyelések

A jelentés 27 perccel ezelõtt készült, 01:00 UTC
Déli szél 4 kt
Hőmérséklet 25°C
Páratartalom 89%
Légköri nyomás 1011 hPa
Látótávolság 10 km, vagy több
Kevés felhő 2000 lábon

METAR: VTSC 290100Z 17004KT 9999 FEW020 25/23 Q1011 NOSIG

Idő: 08:27 (01:27 UTC)

Előrejelzés

A jelentés 2 órával és 27 perccel ezelõtt készült, 23:00 UTC
Az előrejelzés 29-én 00 óra UTC és 29-én 24 óra UTC között érvényes
Déli szél 3 kt
Látótávolság 10 km, vagy több
Kevés felhő 2000 lábon
29-én 03 óra UTC és 29-én 05 óra UTC között fokozatosan kialakuló
Keleti szél 10 kt
29-én 16 óra UTC és 29-én 18 óra UTC között fokozatosan kialakuló
Déli szél 3 kt

TAF: VTSC 282300Z 2900/2924 18003KT 9999 FEW020 BECMG 2903/2905 09010KT BECMG 2916/2918 18003KT

Meteorológiai megfigyelések és előrejelzések több, mint 4000 repülőtéren (METAR és TAF jelentéseket).

A térképen piros és sárga pontok jelzik az elérhető meteorológiai állomásokat.

Mozgassa az egeret a pont fölött, hogy megjelenjen az állomás neve.

Azután kattintson az időjárási megfigyelések és előrejelzések megtekintéséhez.

A térkép megváltoztatása: kattintson a fekete keresztel jelölt zöld gombra ráközelítéshez, a vonallal jelölt zöld gombra távolításhoz, vagy a zöld nyilakra a szomszédos térképek eléréséhez.


METAR-TAF: